Time;durP1;ratioP1;P1;durP2;ratioP2;P2;SDS_P1;SDS_P2;PMS_P1;PMS_P2;Temp;Humidity;BMP_temperature;BMP_pressure;BME280_temperature;BME280_humidity;BME280_pressure;Samples;Min_cycle;Max_cycle;Signal;HPM_P1;HPM_P2
2023/03/31 00:00:52;;;;;;;1.07;0.50;;;26.00;79.90;;;;;;5113787;28;20166;-70
2023/03/31 00:03:23;;;;;;;0.53;0.50;;;25.80;72.30;;;;;;5113779;28;20170;-70
2023/03/31 00:06:01;;;;;;;1.93;0.90;;;26.00;77.00;;;;;;5114154;28;20663;-71
2023/03/31 00:08:34;;;;;;;0.90;0.63;;;26.00;70.00;;;;;;5114091;28;20189;-70
2023/03/31 00:11:04;;;;;;;1.87;0.60;;;26.20;74.00;;;;;;5113915;28;20265;-70
2023/03/31 00:13:31;;;;;;;0.40;0.40;;;26.70;63.00;;;;;;5113587;28;20227;-70
2023/03/31 00:16:08;;;;;;;0.50;0.50;;;26.70;68.60;;;;;;5114331;28;20171;-72
2023/03/31 00:18:36;;;;;;;1.37;0.50;;;26.40;63.30;;;;;;5113794;28;20257;-72
2023/03/31 00:21:28;;;;;;;1.20;0.40;;;26.80;69.00;;;;;;5113615;28;20170;-71
2023/03/31 00:24:04;;;;;;;1.77;0.57;;;27.30;60.10;;;;;;5113634;28;20214;-69
2023/03/31 00:26:32;;;;;;;2.10;0.47;;;26.70;58.40;;;;;;5113730;28;20633;-70
2023/03/31 00:28:59;;;;;;;0.73;0.47;;;27.00;56.20;;;;;;5113673;28;20179;-70
2023/03/31 00:31:28;;;;;;;0.50;0.40;;;26.50;56.90;;;;;;5113644;28;20170;-71
2023/03/31 00:33:56;;;;;;;0.80;0.60;;;26.50;56.10;;;;;;5113586;28;20170;-70
2023/03/31 00:36:26;;;;;;;1.80;0.60;;;26.60;54.00;;;;;;5113570;28;20638;-70
2023/03/31 00:38:59;;;;;;;1.00;0.60;;;26.90;54.90;;;;;;5113704;28;20649;-71
2023/03/31 00:41:28;;;;;;;0.40;0.40;;;27.30;51.00;;;;;;5113346;28;20171;-70
2023/03/31 00:44:21;;;;;;;0.90;0.50;;;27.30;51.40;;;;;;5112117;28;20213;-72
2023/03/31 00:46:56;;;;;;;1.20;0.50;;;27.90;48.20;;;;;;5112122;28;20194;-72
2023/03/31 00:49:31;;;;;;;0.53;0.33;;;28.50;52.60;;;;;;5110718;28;20209;-72
2023/03/31 00:52:34;;;;;;;2.20;0.57;;;28.60;49.50;;;;;;5113766;28;20170;-70
2023/03/31 00:55:18;;;;;;;1.40;0.40;;;28.30;49.20;;;;;;5106587;28;20166;-71
2023/03/31 00:57:47;;;;;;;0.43;0.40;;;27.60;45.20;;;;;;5097449;28;20185;-71
2023/03/31 01:00:16;;;;;;;0.30;0.30;;;28.20;43.30;;;;;;5092363;28;20665;-71
2023/03/31 01:02:57;;;;;;;1.00;0.40;;;28.00;39.40;;;;;;5092157;28;20179;-73
2023/03/31 01:05:31;;;;;;;0.70;0.30;;;28.40;44.00;;;;;;5091093;28;20284;-71
2023/03/31 01:08:01;;;;;;;0.30;0.23;;;28.20;35.10;;;;;;5094979;28;20179;-73
2023/03/31 01:10:32;;;;;;;0.50;0.33;;;27.90;36.60;;;;;;5095050;28;20288;-73
2023/03/31 01:13:00;;;;;;;2.53;0.37;;;27.60;30.40;;;;;;5112651;28;20232;-71
2023/03/31 01:15:27;;;;;;;1.80;0.30;;;27.30;32.60;;;;;;5115440;28;20600;-70
2023/03/31 01:17:56;;;;;;;0.80;0.50;;;27.40;32.50;;;;;;5115281;28;20765;-73
2023/03/31 01:20:29;;;;;;;2.90;0.57;;;28.10;34.60;;;;;;5115674;28;20180;-73
2023/03/31 01:23:16;;;;;;;0.70;0.37;;;28.80;36.30;;;;;;5115473;28;20193;-72
2023/03/31 01:26:14;;;;;;;0.40;0.40;;;29.30;33.40;;;;;;5115516;28;20190;-71
2023/03/31 01:29:07;;;;;;;2.27;0.30;;;29.00;31.10;;;;;;5102311;28;20206;-72
2023/03/31 01:31:53;;;;;;;0.50;0.30;;;29.00;34.50;;;;;;5102664;28;20250;-72
2023/03/31 01:34:29;;;;;;;0.80;0.40;;;28.70;30.30;;;;;;5115457;27;20201;-72
2023/03/31 01:37:28;;;;;;;0.87;0.50;;;29.20;34.40;;;;;;5108296;28;20570;-71
2023/03/31 01:40:11;;;;;;;0.30;0.30;;;29.10;30.00;;;;;;5094922;28;20202;-71
2023/03/31 01:43:13;;;;;;;0.70;0.40;;;30.00;33.70;;;;;;5094352;28;20183;-69
2023/03/31 01:46:03;;;;;;;0.40;0.30;;;29.30;29.80;;;;;;5090819;28;20199;-70
2023/03/31 01:49:12;;;;;;;0.80;0.40;;;29.00;27.50;;;;;;5065414;28;20205;-70
2023/03/31 01:52:00;;;;;;;2.10;0.30;;;29.40;29.90;;;;;;5032132;28;20706;-69
2023/03/31 01:55:11;;;;;;;2.00;0.37;;;30.20;29.00;;;;;;5031761;28;20533;-71
2023/03/31 01:57:47;;;;;;;2.67;0.40;;;30.40;25.50;;;;;;5070956;28;20190;-72
2023/03/31 02:00:18;;;;;;;3.73;0.60;;;30.10;26.50;;;;;;5105429;28;20262;-71
2023/03/31 02:03:01;;;;;;;0.60;0.47;;;30.00;26.70;;;;;;5094699;28;20225;-69
2023/03/31 02:05:43;;;;;;;0.40;0.40;;;29.80;25.60;;;;;;5097035;28;20214;-70
2023/03/31 02:08:38;;;;;;;1.07;0.30;;;29.40;25.80;;;;;;5104886;28;20171;-70
2023/03/31 02:11:05;;;;;;;0.30;0.30;;;29.50;25.90;;;;;;5112026;28;20253;-71
2023/03/31 02:13:36;;;;;;;0.60;0.38;;;30.00;24.90;;;;;;5114580;27;20328;-73
2023/03/31 02:16:10;;;;;;;4.28;0.50;;;29.60;26.00;;;;;;5113641;28;20179;-73
2023/03/31 02:18:40;;;;;;;1.17;0.40;;;29.50;24.60;;;;;;5114741;28;20170;-71
2023/03/31 02:21:09;;;;;;;0.40;0.32;;;30.10;27.40;;;;;;5114694;28;20183;-72
2023/03/31 02:23:37;;;;;;;2.83;0.30;;;30.40;24.00;;;;;;5114517;28;20606;-74
2023/03/31 02:26:11;;;;;;;0.43;0.20;;;30.70;23.10;;;;;;5113298;28;20671;-70
2023/03/31 02:28:39;;;;;;;1.67;0.30;;;30.10;21.90;;;;;;5111264;28;20190;-73
2023/03/31 02:31:40;;;;;;;0.55;0.30;;;29.90;23.10;;;;;;5114563;28;20269;-72
2023/03/31 02:34:07;;;;;;;0.20;0.20;;;29.60;21.50;;;;;;5114447;28;20649;-72
2023/03/31 02:36:36;;;;;;;0.47;0.30;;;29.50;20.60;;;;;;5114466;28;20175;-70
2023/03/31 02:39:08;;;;;;;0.20;0.20;;;29.30;18.60;;;;;;5114358;28;20649;-72
2023/03/31 02:41:35;;;;;;;0.50;0.30;;;29.30;22.60;;;;;;5113134;28;20592;-72
2023/03/31 02:44:03;;;;;;;1.20;0.40;;;29.60;23.50;;;;;;5114137;28;20657;-71
2023/03/31 02:46:32;;;;;;;0.50;0.30;;;30.10;23.20;;;;;;5114251;28;20265;-72
2023/03/31 02:49:02;;;;;;;0.85;0.30;;;29.90;21.70;;;;;;5114236;28;20262;-72
2023/03/31 02:51:47;;;;;;;1.55;0.50;;;30.20;23.70;;;;;;5114114;28;20251;-71
2023/03/31 02:54:33;;;;;;;2.45;0.32;;;31.00;25.50;;;;;;5113936;28;20179;-71
2023/03/31 02:57:35;;;;;;;0.52;0.28;;;30.60;22.50;;;;;;5114291;28;20181;-70
2023/03/31 03:00:32;;;;;;;5.65;0.50;;;30.10;23.60;;;;;;5108667;28;20221;-72
2023/03/31 03:03:19;;;;;;;1.17;0.30;;;29.80;21.50;;;;;;5115090;28;20266;-70
2023/03/31 03:06:05;;;;;;;1.07;0.40;;;29.60;22.60;;;;;;5094861;28;20267;-72
2023/03/31 03:08:54;;;;;;;2.10;0.20;;;29.60;21.10;;;;;;5114052;28;20178;-72
2023/03/31 03:11:46;;;;;;;1.60;0.32;;;30.00;22.30;;;;;;5095864;28;20182;-70
2023/03/31 03:14:13;;;;;;;1.30;0.50;;;29.00;22.00;;;;;;5071376;28;20214;-72
2023/03/31 03:16:45;;;;;;;1.23;0.40;;;28.80;22.40;;;;;;5102764;28;20207;-72
2023/03/31 03:19:21;;;;;;;1.23;0.20;;;29.40;23.30;;;;;;5098747;28;20183;-72
2023/03/31 03:21:48;;;;;;;0.23;0.20;;;29.80;22.80;;;;;;5092969;28;20269;-71
2023/03/31 03:24:17;;;;;;;0.40;0.30;;;29.00;21.90;;;;;;5093104;28;20577;-75
2023/03/31 03:26:45;;;;;;;1.23;0.30;;;29.00;22.10;;;;;;5092555;28;20180;-72
2023/03/31 03:29:14;;;;;;;1.03;0.40;;;28.70;22.30;;;;;;5093065;28;20232;-72
2023/03/31 03:31:42;;;;;;;2.43;0.30;;;28.80;22.20;;;;;;5091450;28;20183;-71
2023/03/31 03:34:09;;;;;;;1.30;0.30;;;28.80;21.40;;;;;;5093054;28;20186;-71
2023/03/31 03:36:37;;;;;;;0.70;0.30;;;28.70;21.90;;;;;;5094594;28;20179;-72
2023/03/31 03:39:07;;;;;;;0.47;0.45;;;29.30;23.10;;;;;;5101489;28;20183;-70
2023/03/31 03:41:35;;;;;;;0.30;0.30;;;29.50;24.40;;;;;;5097654;28;20180;-75
2023/03/31 03:44:03;;;;;;;0.50;0.30;;;29.50;21.40;;;;;;5092556;28;20241;-72
2023/03/31 03:46:30;;;;;;;1.20;0.20;;;29.70;21.00;;;;;;5092597;28;20263;-72
2023/03/31 03:48:58;;;;;;;5.17;0.50;;;29.70;22.10;;;;;;5092607;28;20236;-73
2023/03/31 03:51:25;;;;;;;0.80;0.43;;;29.80;20.40;;;;;;5092520;28;20171;-72
2023/03/31 03:53:53;;;;;;;0.83;0.40;;;29.80;20.80;;;;;;5092681;28;20236;-72
2023/03/31 03:56:20;;;;;;;0.40;0.40;;;30.00;22.50;;;;;;5092571;28;20256;-71
2023/03/31 03:58:48;;;;;;;1.23;0.40;;;29.60;21.70;;;;;;5092431;28;20183;-72
2023/03/31 04:01:16;;;;;;;1.23;0.40;;;29.60;22.70;;;;;;5097779;28;20178;-73
2023/03/31 04:03:44;;;;;;;0.77;0.40;;;29.80;22.50;;;;;;5112642;28;20214;-71
2023/03/31 04:06:12;;;;;;;0.33;0.30;;;29.40;20.30;;;;;;5112783;28;20175;-72
2023/03/31 04:08:39;;;;;;;4.60;0.50;;;29.30;22.60;;;;;;5112719;28;20696;-72
2023/03/31 04:11:18;;;;;;;1.97;0.40;;;29.00;22.30;;;;;;5112917;28;20177;-72
2023/03/31 04:13:46;;;;;;;0.27;0.27;;;29.00;23.60;;;;;;5111130;28;20599;-72
2023/03/31 04:16:17;;;;;;;0.20;0.20;;;29.00;22.50;;;;;;5112566;28;20214;-72
2023/03/31 04:18:45;;;;;;;1.53;0.50;;;28.90;22.90;;;;;;5112657;28;20220;-71
2023/03/31 04:24:37;;;;;;;0.50;0.40;;;28.70;26.50;;;;;;5111528;28;20750;-71
2023/03/31 04:27:09;;;;;;;0.87;0.40;;;28.80;27.10;;;;;;5112308;28;20178;-71
2023/03/31 04:29:36;;;;;;;0.50;0.50;;;28.60;27.10;;;;;;5109572;28;20178;-72
2023/03/31 04:32:04;;;;;;;2.00;0.60;;;28.70;26.60;;;;;;5103079;28;20201;-73
2023/03/31 04:34:34;;;;;;;0.70;0.50;;;28.90;27.70;;;;;;5113361;28;20197;-72
2023/03/31 04:37:02;;;;;;;0.40;0.40;;;28.90;27.70;;;;;;5112261;28;20172;-72
2023/03/31 04:39:30;;;;;;;0.50;0.30;;;29.00;28.00;;;;;;5111897;28;20243;-73
2023/03/31 04:41:59;;;;;;;1.30;0.77;;;28.80;25.80;;;;;;5112075;28;20616;-71
2023/03/31 04:44:27;;;;;;;2.03;0.40;;;28.60;28.00;;;;;;5112030;28;20217;-74
2023/03/31 04:46:55;;;;;;;1.13;0.53;;;28.20;28.20;;;;;;5104557;28;20660;-72
2023/03/31 04:49:22;;;;;;;0.50;0.40;;;28.30;29.60;;;;;;5112199;28;20178;-73
2023/03/31 04:51:50;;;;;;;0.40;0.40;;;28.10;28.00;;;;;;5112032;28;20265;-71
2023/03/31 04:54:17;;;;;;;0.43;0.40;;;28.10;29.60;;;;;;5112151;28;20182;-72
2023/03/31 04:56:45;;;;;;;0.97;0.60;;;27.90;30.00;;;;;;5110783;28;20182;-72
2023/03/31 04:59:12;;;;;;;0.63;0.50;;;27.70;30.20;;;;;;5111995;28;20680;-73
2023/03/31 05:01:44;;;;;;;0.50;0.50;;;27.90;28.60;;;;;;5112066;28;20308;-73
2023/03/31 05:04:11;;;;;;;6.27;0.60;;;27.90;32.20;;;;;;5111812;28;20206;-73
2023/03/31 05:06:39;;;;;;;2.67;0.53;;;27.60;30.90;;;;;;5112087;28;20262;-75
2023/03/31 05:09:08;;;;;;;0.90;0.40;;;27.70;33.20;;;;;;5111973;28;20178;-73
2023/03/31 05:11:36;;;;;;;0.73;0.50;;;27.80;31.80;;;;;;5111857;28;20185;-73
2023/03/31 05:14:05;;;;;;;0.40;0.40;;;27.50;33.50;;;;;;5102391;28;20229;-71
2023/03/31 05:16:33;;;;;;;0.50;0.40;;;27.50;33.00;;;;;;5102853;28;20205;-70
2023/03/31 05:19:00;;;;;;;3.07;0.40;;;27.60;34.80;;;;;;5106046;28;20182;-74
2023/03/31 05:21:29;;;;;;;1.20;0.50;;;27.50;33.20;;;;;;5111870;28;20179;-73
2023/03/31 05:23:57;;;;;;;0.70;0.50;;;27.70;36.10;;;;;;5111716;28;20240;-74
2023/03/31 05:26:25;;;;;;;0.93;0.60;;;27.70;37.70;;;;;;5111692;28;20590;-72
2023/03/31 05:28:53;;;;;;;0.63;0.40;;;27.60;36.90;;;;;;5111827;28;20537;-72
2023/03/31 05:31:21;;;;;;;1.97;0.50;;;27.50;36.90;;;;;;5110584;28;20167;-72
2023/03/31 05:33:52;;;;;;;0.70;0.60;;;27.30;37.40;;;;;;5111412;28;20175;-73
2023/03/31 05:36:22;;;;;;;2.53;0.60;;;27.30;39.90;;;;;;5109973;28;20214;-73
2023/03/31 05:38:51;;;;;;;1.10;0.50;;;27.20;36.10;;;;;;5111225;28;20181;-72
2023/03/31 05:41:18;;;;;;;2.33;0.50;;;27.00;37.40;;;;;;5111136;28;20181;-73
2023/03/31 05:43:46;;;;;;;0.77;0.40;;;26.90;39.30;;;;;;5111130;28;20228;-72
2023/03/31 05:46:13;;;;;;;3.90;0.40;;;27.00;38.70;;;;;;5109923;28;20193;-72
2023/03/31 05:48:40;;;;;;;1.80;0.57;;;26.80;38.10;;;;;;5110769;28;20200;-70
2023/03/31 05:51:08;;;;;;;1.07;0.40;;;26.80;38.80;;;;;;5113451;28;20633;-73
2023/03/31 05:53:35;;;;;;;1.53;0.50;;;26.70;42.90;;;;;;5113518;28;20209;-72
2023/03/31 05:56:06;;;;;;;0.57;0.40;;;26.50;43.50;;;;;;5114588;28;20227;-72
2023/03/31 05:58:37;;;;;;;1.37;0.60;;;26.30;43.60;;;;;;5114830;28;20646;-73
2023/03/31 06:01:07;;;;;;;0.80;0.30;;;26.30;42.80;;;;;;5114801;28;20174;-72
2023/03/31 06:03:36;;;;;;;2.10;0.60;;;26.30;44.80;;;;;;5113277;28;20594;-72
2023/03/31 06:06:05;;;;;;;0.67;0.50;;;26.30;43.80;;;;;;5112999;28;20231;-73
2023/03/31 06:08:33;;;;;;;0.37;0.37;;;26.20;43.00;;;;;;5114637;28;20247;-71
2023/03/31 06:11:04;;;;;;;0.63;0.40;;;26.10;43.80;;;;;;5114221;28;20183;-71
2023/03/31 06:13:31;;;;;;;6.57;0.50;;;26.00;44.70;;;;;;5114452;28;20230;-73
2023/03/31 06:16:00;;;;;;;1.40;0.67;;;26.20;44.80;;;;;;5114491;28;20182;-73
2023/03/31 06:18:30;;;;;;;5.00;1.13;;;26.40;43.20;;;;;;5114357;28;20186;-73
2023/03/31 06:20:58;;;;;;;0.40;0.40;;;26.50;44.80;;;;;;5113829;28;20202;-72
2023/03/31 06:23:26;;;;;;;1.67;0.77;;;26.70;46.00;;;;;;5114261;27;20179;-72
2023/03/31 06:25:58;;;;;;;0.80;0.60;;;26.80;44.40;;;;;;5113932;28;20179;-74
2023/03/31 06:28:25;;;;;;;1.60;0.50;;;26.60;44.10;;;;;;5114301;28;20633;-73
2023/03/31 06:31:00;;;;;;;0.93;0.73;;;26.30;46.00;;;;;;5113882;28;20175;-73
2023/03/31 06:33:28;;;;;;;1.80;0.60;;;25.90;46.40;;;;;;5114182;28;20166;-72
2023/03/31 06:36:00;;;;;;;2.23;1.10;;;25.70;47.90;;;;;;5114195;28;20178;-72
2023/03/31 06:38:28;;;;;;;1.53;0.63;;;25.30;48.20;;;;;;5114044;28;20212;-73
2023/03/31 06:40:55;;;;;;;1.90;0.80;;;25.10;51.80;;;;;;5113930;28;20178;-74
2023/03/31 06:43:23;;;;;;;3.10;0.80;;;25.10;51.20;;;;;;5113540;28;20171;-73
2023/03/31 06:45:52;;;;;;;0.77;0.60;;;25.20;51.80;;;;;;5113825;28;20511;-74
2023/03/31 06:48:19;;;;;;;0.87;0.67;;;24.90;47.70;;;;;;5113255;28;20224;-71
2023/03/31 06:50:47;;;;;;;2.03;0.70;;;24.70;51.60;;;;;;5113883;28;20162;-73
2023/03/31 06:53:14;;;;;;;1.07;0.70;;;24.50;54.20;;;;;;5114267;28;20227;-72
2023/03/31 06:55:42;;;;;;;1.67;1.00;;;24.40;56.90;;;;;;5113950;28;20193;-72
2023/03/31 06:58:10;;;;;;;4.93;0.90;;;24.30;59.30;;;;;;5113870;28;20182;-73
2023/03/31 07:00:38;;;;;;;1.67;1.00;;;24.10;62.00;;;;;;5113836;28;20182;-74
2023/03/31 07:03:07;;;;;;;2.53;0.80;;;24.10;64.20;;;;;;5113182;28;20175;-73
2023/03/31 07:05:35;;;;;;;2.43;0.70;;;24.00;63.40;;;;;;5111291;28;20226;-73
2023/03/31 07:08:02;;;;;;;2.30;0.70;;;23.90;66.50;;;;;;5113562;27;20556;-73
2023/03/31 07:10:31;;;;;;;3.77;0.67;;;23.80;68.80;;;;;;5113443;27;20167;-72
2023/03/31 07:12:58;;;;;;;2.60;0.70;;;23.80;73.30;;;;;;5113576;28;20261;-72
2023/03/31 07:15:27;;;;;;;2.90;0.73;;;23.60;78.20;;;;;;5111928;28;20179;-73
2023/03/31 07:18:00;;;;;;;1.70;0.80;;;23.60;86.90;;;;;;5113544;28;20179;-72
2023/03/31 07:20:29;;;;;;;1.20;0.80;;;23.50;89.70;;;;;;5113331;28;20261;-73
2023/03/31 07:22:57;;;;;;;1.37;0.60;;;23.40;92.80;;;;;;5113195;28;20186;-73
2023/03/31 07:25:24;;;;;;;0.97;0.70;;;23.30;94.20;;;;;;5113011;28;20719;-74
2023/03/31 07:27:52;;;;;;;2.30;0.87;;;23.30;95.80;;;;;;5113293;28;20235;-73
2023/03/31 07:30:20;;;;;;;1.37;0.80;;;23.30;96.20;;;;;;5112965;28;20174;-73
2023/03/31 07:32:50;;;;;;;3.23;0.87;;;23.10;99.90;;;;;;5109570;28;20186;-72
2023/03/31 07:35:18;;;;;;;1.47;0.70;;;23.10;99.90;;;;;;5112878;28;20189;-72
2023/03/31 07:37:47;;;;;;;4.57;1.00;;;23.00;99.90;;;;;;5112463;28;20532;-73
2023/03/31 07:40:22;;;;;;;1.23;0.90;;;23.00;99.90;;;;;;5112577;28;20178;-74
2023/03/31 07:42:51;;;;;;;2.23;0.77;;;22.90;99.90;;;;;;5121302;28;20170;-75
2023/03/31 07:45:20;;;;;;;1.87;0.80;;;22.90;99.90;;;;;;5117209;28;20654;-74
2023/03/31 07:47:49;;;;;;;2.07;0.97;;;22.80;99.90;;;;;;5115318;28;20179;-75
2023/03/31 07:50:16;;;;;;;3.30;1.23;;;22.70;99.90;;;;;;5115067;28;20198;-73
2023/03/31 07:52:44;;;;;;;2.37;0.90;;;22.60;99.90;;;;;;5113821;28;20178;-72
2023/03/31 07:55:12;;;;;;;2.97;0.77;;;22.60;99.90;;;;;;5112463;28;20179;-72
2023/03/31 07:57:40;;;;;;;2.60;0.83;;;22.60;99.90;;;;;;5111092;28;20211;-74
2023/03/31 08:00:11;;;;;;;3.33;0.70;;;22.50;99.90;;;;;;5107810;28;20492;-74
2023/03/31 08:02:41;;;;;;;0.90;0.80;;;22.40;99.90;;;;;;5095811;28;20653;-72
2023/03/31 08:05:10;;;;;;;1.00;0.80;;;22.30;99.90;;;;;;5112229;28;20210;-72
2023/03/31 08:07:40;;;;;;;1.07;0.70;;;22.20;99.90;;;;;;5111808;28;20170;-72
2023/03/31 08:10:12;;;;;;;1.57;1.03;;;22.20;99.90;;;;;;5112247;28;20649;-72
2023/03/31 08:12:40;;;;;;;4.40;1.03;;;22.20;99.90;;;;;;5111896;28;20222;-71
2023/03/31 08:15:08;;;;;;;2.37;1.00;;;22.20;99.90;;;;;;5110745;28;20186;-73
2023/03/31 08:17:35;;;;;;;1.23;0.70;;;22.20;99.90;;;;;;5111948;28;20189;-71
2023/03/31 08:20:06;;;;;;;1.70;0.80;;;22.20;99.90;;;;;;5111722;28;20185;-71
2023/03/31 08:22:33;;;;;;;2.53;1.03;;;22.20;99.90;;;;;;5112123;28;20170;-72
2023/03/31 08:25:01;;;;;;;1.40;0.80;;;22.20;99.90;;;;;;5111917;28;20202;-73
2023/03/31 08:27:31;;;;;;;1.43;0.83;;;22.20;99.90;;;;;;5111995;28;20274;-71
2023/03/31 08:30:03;;;;;;;0.97;0.80;;;22.20;99.90;;;;;;5111604;28;20266;-72
2023/03/31 08:32:34;;;;;;;2.60;0.97;;;22.10;99.90;;;;;;5110327;28;20571;-73
2023/03/31 08:35:03;;;;;;;2.10;0.80;;;22.00;99.90;;;;;;5111628;28;20186;-71
2023/03/31 08:37:31;;;;;;;1.50;1.00;;;22.00;99.90;;;;;;5111857;28;20257;-72
2023/03/31 08:39:59;;;;;;;4.80;1.30;;;22.00;99.90;;;;;;5111874;28;20227;-72
2023/03/31 08:42:35;;;;;;;1.13;0.70;;;21.90;99.90;;;;;;5111604;28;20189;-73
2023/03/31 08:45:17;;;;;;;3.33;0.93;;;21.90;99.90;;;;;;5111752;28;20271;-71
2023/03/31 08:47:50;;;;;;;1.40;0.87;;;21.80;99.90;;;;;;5112303;28;20576;-72
2023/03/31 08:50:28;;;;;;;1.40;1.07;;;21.70;99.90;;;;;;5112374;28;20182;-72
2023/03/31 08:53:13;;;;;;;1.40;1.10;;;21.50;99.90;;;;;;5110470;28;20530;-70
2023/03/31 08:55:50;;;;;;;1.30;0.90;;;21.40;99.90;;;;;;5110236;28;20636;-73
2023/03/31 08:58:31;;;;;;;1.60;1.10;;;21.30;99.90;;;;;;5111742;28;20196;-72
2023/03/31 09:01:12;;;;;;;2.53;1.37;;;21.20;99.90;;;;;;5111946;28;20215;-72
2023/03/31 09:03:58;;;;;;;2.70;1.30;;;21.20;99.90;;;;;;5111435;28;20253;-71
2023/03/31 09:06:45;;;;;;;5.20;1.23;;;21.00;99.90;;;;;;5112067;28;20286;-73
2023/03/31 09:09:29;;;;;;;2.60;0.97;;;21.00;99.90;;;;;;5070464;28;20195;-71
2023/03/31 09:12:01;;;;;;;3.90;1.00;;;21.00;99.90;;;;;;5111596;28;20691;-72
2023/03/31 09:14:37;;;;;;;3.33;1.13;;;20.90;99.90;;;;;;5094083;28;20191;-72
2023/03/31 09:17:50;;;;;;;2.13;1.20;;;20.80;99.90;;;;;;5112167;28;20652;-72
2023/03/31 09:20:20;;;;;;;1.73;1.10;;;20.80;99.90;;;;;;5110229;28;20206;-72
2023/03/31 09:22:56;;;;;;;2.33;1.33;;;20.70;99.90;;;;;;5110088;28;20179;-70
2023/03/31 09:25:30;;;;;;;4.50;1.27;;;20.70;99.90;;;;;;5112966;28;20225;-70
2023/03/31 09:28:01;;;;;;;5.00;1.30;;;20.80;99.90;;;;;;5113938;28;20381;-73
2023/03/31 09:30:31;;;;;;;2.50;1.20;;;20.80;99.90;;;;;;5097989;28;20186;-72
2023/03/31 09:33:24;;;;;;;2.10;1.07;;;20.90;99.90;;;;;;5115485;28;20246;-72
2023/03/31 09:35:51;;;;;;;1.93;1.20;;;20.90;99.90;;;;;;5115376;27;20250;-72
2023/03/31 09:38:18;;;;;;;2.10;1.10;;;21.00;99.90;;;;;;5115710;28;20226;-72
2023/03/31 09:40:46;;;;;;;1.77;1.13;;;21.10;99.90;;;;;;5114166;28;20183;-72
2023/03/31 09:43:26;;;;;;;4.20;1.00;;;21.10;99.90;;;;;;5115101;28;20526;-69
2023/03/31 09:45:54;;;;;;;2.37;1.20;;;21.30;99.90;;;;;;5115152;28;20233;-71
2023/03/31 09:48:32;;;;;;;2.17;1.40;;;21.30;99.90;;;;;;5113744;28;20202;-70
2023/03/31 09:51:02;;;;;;;1.60;1.20;;;21.30;99.90;;;;;;5114841;28;20269;-70
2023/03/31 09:53:40;;;;;;;2.00;1.30;;;21.30;99.90;;;;;;5114845;28;20167;-72
2023/03/31 09:56:10;;;;;;;5.17;1.43;;;21.30;99.90;;;;;;5114908;28;20298;-72
2023/03/31 09:58:42;;;;;;;3.13;1.40;;;21.30;99.90;;;;;;5112663;28;20649;-73
2023/03/31 10:01:14;;;;;;;1.67;1.20;;;21.20;99.90;;;;;;5102831;28;20282;-72
2023/03/31 10:03:52;;;;;;;1.80;1.30;;;21.30;99.90;;;;;;5094417;28;20179;-73
2023/03/31 10:06:22;;;;;;;2.67;1.20;;;21.20;99.90;;;;;;5094458;28;20206;-72
2023/03/31 10:08:58;;;;;;;1.47;1.07;;;21.30;99.90;;;;;;5094045;28;20280;-72
2023/03/31 10:11:26;;;;;;;1.50;0.93;;;21.20;99.90;;;;;;5094102;28;20179;-73
2023/03/31 10:14:00;;;;;;;3.67;1.00;;;21.20;99.90;;;;;;5092054;28;20588;-73
2023/03/31 10:16:33;;;;;;;1.57;1.00;;;21.20;99.90;;;;;;5092760;28;20557;-72
2023/03/31 10:19:31;;;;;;;1.70;0.90;;;21.20;99.90;;;;;;5094019;28;20189;-72
2023/03/31 10:22:04;;;;;;;3.00;1.00;;;21.10;99.90;;;;;;5093877;28;20186;-72
2023/03/31 10:24:43;;;;;;;1.63;0.90;;;21.20;99.90;;;;;;5092532;28;20302;-72
2023/03/31 10:27:34;;;;;;;1.67;0.83;;;21.20;99.90;;;;;;5093668;28;20208;-72
2023/03/31 10:30:09;;;;;;;3.40;1.13;;;21.20;99.90;;;;;;5085862;28;20223;-72
2023/03/31 10:32:43;;;;;;;1.60;1.17;;;21.20;99.90;;;;;;5093714;28;20173;-72
2023/03/31 10:35:16;;;;;;;1.03;0.93;;;21.10;99.90;;;;;;5093557;28;20167;-70
2023/03/31 10:37:44;;;;;;;3.23;0.90;;;21.10;99.90;;;;;;5092435;28;20235;-72
2023/03/31 10:40:25;;;;;;;0.87;0.87;;;21.10;99.90;;;;;;5093569;28;20228;-71
2023/03/31 10:43:48;;;;;;;2.47;0.90;;;21.10;99.90;;;;;;5093502;28;20593;-72
2023/03/31 10:46:15;;;;;;;1.50;0.97;;;21.10;99.90;;;;;;5088987;28;20229;-72
2023/03/31 10:48:43;;;;;;;1.80;1.07;;;21.10;99.90;;;;;;5093404;28;20189;-72
2023/03/31 10:51:30;;;;;;;2.57;1.33;;;21.10;99.90;;;;;;5091564;28;20225;-71
2023/03/31 10:54:05;;;;;;;2.03;0.90;;;21.10;99.90;;;;;;5102826;28;20279;-72
2023/03/31 10:56:38;;;;;;;1.63;1.10;;;21.10;99.90;;;;;;5111317;28;20221;-71
2023/03/31 10:59:35;;;;;;;2.77;1.10;;;21.00;99.90;;;;;;5112662;28;20272;-71
2023/03/31 11:02:30;;;;;;;4.03;0.87;;;21.00;99.90;;;;;;5097286;28;20664;-72
2023/03/31 11:05:15;;;;;;;1.30;0.83;;;21.00;99.90;;;;;;5092658;28;20228;-70
2023/03/31 11:08:10;;;;;;;1.30;1.20;;;21.00;99.90;;;;;;5095057;28;20708;-71
2023/03/31 11:10:51;;;;;;;1.67;1.10;;;20.90;99.90;;;;;;5112423;28;20179;-73
2023/03/31 11:13:19;;;;;;;2.20;1.20;;;20.90;99.90;;;;;;5111105;28;20309;-71
2023/03/31 11:16:07;;;;;;;1.33;1.17;;;20.90;99.90;;;;;;5112762;28;20175;-70
2023/03/31 11:19:02;;;;;;;1.10;1.00;;;20.90;99.90;;;;;;5110669;28;20759;-70
2023/03/31 11:21:53;;;;;;;1.87;1.00;;;20.80;99.90;;;;;;5065388;28;20665;-71
2023/03/31 11:24:46;;;;;;;5.07;1.43;;;20.80;99.90;;;;;;5112190;28;20216;-69
2023/03/31 11:27:17;;;;;;;1.00;0.90;;;20.80;99.90;;;;;;5112376;28;20189;-70
2023/03/31 11:30:06;;;;;;;1.67;0.80;;;20.70;99.90;;;;;;5112434;28;20175;-72
2023/03/31 11:32:45;;;;;;;2.77;1.00;;;20.70;99.90;;;;;;5112681;28;20240;-70
2023/03/31 11:35:31;;;;;;;1.20;0.93;;;20.70;99.90;;;;;;5112119;28;20206;-71
2023/03/31 11:38:32;;;;;;;1.33;0.97;;;20.60;99.90;;;;;;5092140;28;20182;-70
2023/03/31 11:41:05;;;;;;;1.23;0.90;;;20.50;99.90;;;;;;5092363;28;20213;-69
2023/03/31 11:43:36;;;;;;;1.40;1.10;;;20.50;99.90;;;;;;5092293;28;20179;-70
2023/03/31 11:46:27;;;;;;;3.50;1.10;;;20.50;99.90;;;;;;5092514;28;20255;-70
2023/03/31 11:49:10;;;;;;;2.33;1.47;;;20.40;99.90;;;;;;5092087;28;20196;-70
2023/03/31 11:51:56;;;;;;;2.40;1.17;;;20.50;99.90;;;;;;5092300;28;20171;-69
2023/03/31 11:54:23;;;;;;;1.43;1.07;;;20.40;99.90;;;;;;5092249;28;20190;-70
2023/03/31 11:56:52;;;;;;;1.20;1.00;;;20.40;99.90;;;;;;5092134;28;20212;-70
2023/03/31 11:59:22;;;;;;;1.50;1.00;;;20.40;99.90;;;;;;5092281;28;20290;-70
2023/03/31 12:02:23;;;;;;;1.50;1.10;;;20.40;99.90;;;;;;5092232;28;20209;-70
2023/03/31 12:04:55;;;;;;;1.47;0.90;;;20.30;99.90;;;;;;5091996;28;20227;-70
2023/03/31 12:07:34;;;;;;;1.60;1.00;;;20.30;99.90;;;;;;5092068;28;20225;-70
2023/03/31 12:10:22;;;;;;;4.07;0.90;;;20.20;99.90;;;;;;5091750;28;20205;-70
2023/03/31 12:13:19;;;;;;;3.13;1.00;;;20.20;99.90;;;;;;5100427;28;20229;-70
2023/03/31 12:16:03;;;;;;;2.97;1.00;;;20.10;99.90;;;;;;5061160;28;20199;-70
2023/03/31 12:19:01;;;;;;;1.93;1.00;;;20.10;99.90;;;;;;5091487;28;20265;-70
2023/03/31 12:21:32;;;;;;;4.87;1.10;;;20.10;99.90;;;;;;5081412;28;20186;-71
2023/03/31 12:23:59;;;;;;;0.83;0.70;;;20.10;99.90;;;;;;5094231;28;20289;-70
2023/03/31 12:26:37;;;;;;;1.73;1.07;;;20.10;99.90;;;;;;5091949;28;20181;-69
2023/03/31 12:29:21;;;;;;;1.37;0.90;;;20.00;99.90;;;;;;5091934;28;20695;-70
2023/03/31 12:31:50;;;;;;;3.63;1.17;;;20.00;99.90;;;;;;5104697;28;20274;-72
2023/03/31 12:34:22;;;;;;;1.20;0.70;;;20.00;99.90;;;;;;5091016;28;20604;-70
2023/03/31 12:37:29;;;;;;;1.73;0.90;;;20.00;99.90;;;;;;5093041;28;20533;-70
2023/03/31 12:40:32;;;;;;;3.00;0.83;;;19.90;99.90;;;;;;5049963;28;20191;-71
2023/03/31 12:43:27;;;;;;;2.03;0.90;;;19.70;99.90;;;;;;5068311;28;20198;-71
2023/03/31 12:46:20;;;;;;;2.20;1.00;;;19.60;99.90;;;;;;5091028;28;20623;-71
2023/03/31 12:49:00;;;;;;;1.53;1.00;;;19.50;99.90;;;;;;5092860;28;20219;-71
2023/03/31 12:51:58;;;;;;;1.47;1.03;;;19.40;99.90;;;;;;5101229;28;20237;-72
2023/03/31 12:54:34;;;;;;;1.00;0.90;;;19.40;99.90;;;;;;5112407;28;20176;-72
2023/03/31 12:57:03;;;;;;;1.63;1.10;;;19.50;99.90;;;;;;5111606;28;20299;-71
2023/03/31 12:59:43;;;;;;;1.27;0.93;;;19.50;99.90;;;;;;5099405;28;20655;-70
2023/03/31 13:02:26;;;;;;;1.80;1.03;;;19.50;99.90;;;;;;5107557;28;20259;-71
2023/03/31 13:04:54;;;;;;;0.93;0.80;;;19.50;99.90;;;;;;5098288;28;20226;-70
2023/03/31 13:07:27;;;;;;;1.90;1.20;;;19.60;99.90;;;;;;5108369;27;20207;-70
2023/03/31 13:10:20;;;;;;;2.53;1.07;;;19.60;99.90;;;;;;5096730;28;20186;-70
2023/03/31 13:13:05;;;;;;;2.60;0.87;;;19.40;99.90;;;;;;5096302;28;20250;-70
2023/03/31 13:15:33;;;;;;;2.27;1.10;;;19.40;99.90;;;;;;5096950;28;20175;-69
2023/03/31 13:18:07;;;;;;;1.83;1.57;;;19.30;99.90;;;;;;5116034;28;20171;-69
2023/03/31 13:20:37;;;;;;;1.33;1.10;;;19.20;99.90;;;;;;5109866;28;20568;-70
2023/03/31 13:23:07;;;;;;;1.43;0.90;;;19.20;99.90;;;;;;5116396;28;20189;-71
2023/03/31 13:25:56;;;;;;;1.70;0.90;;;19.10;99.90;;;;;;5116549;28;20212;-70
2023/03/31 13:28:41;;;;;;;0.67;0.67;;;19.00;99.90;;;;;;5116843;28;20265;-70
2023/03/31 13:31:14;;;;;;;2.47;1.00;;;18.90;99.90;;;;;;5116937;28;20173;-72